Bouckville, New York
Current Conditions -  °F | °C
As of 9:53 AM on Sunday 21 Dec 2014 (Local Time) from KRME Reporting Station
Overcast Overcast  
Wind Chill: 28°   Ceiling: 3000
Heat Index: 28°   Visibility: 10mi
Dew Point: 22°   Wind: 3mph
Humidity: 78%   Direction: 90°E
Pressure: 30.36"   Gusts: NA
Location:  42.89°N, 75.55°W
Report Text: KRME 211453Z 09003KT 10SM BKN030 OVC055 M02/M06 A3036 RMK AO2 SLP286 T10221056 53014
Loading
Personal Weather Stations






























Interactive Weather Map New forecast layout! Learn more

10-Day Weather Forecast

Advertisements
Track Severe Weather on mobile